createdAt,value
2019-01-19T00:00:29.019Z,96.30
2019-01-19T00:02:00.690Z,96.30
2019-01-19T00:03:53.977Z,96.30
2019-01-19T00:05:37.831Z,96.20
2019-01-19T00:07:08.828Z,95.90
2019-01-19T00:08:23.253Z,95.60
2019-01-19T00:09:57.317Z,95.40
2019-01-19T00:11:45.124Z,95.30
2019-01-19T00:13:43.256Z,95.30
2019-01-19T00:14:56.235Z,95.20
2019-01-19T00:16:26.225Z,95.40
2019-01-19T00:17:58.964Z,95.30
2019-01-19T00:19:43.918Z,95.40
2019-01-19T00:21:25.343Z,95.50
2019-01-19T00:23:10.469Z,95.90
2019-01-19T00:24:41.157Z,95.90
2019-01-19T00:26:35.430Z,96.10
2019-01-19T00:28:02.442Z,96.30
2019-01-19T00:29:34.008Z,96.20
2019-01-19T00:30:56.764Z,96.30
2019-01-19T00:32:08.204Z,96.60
2019-01-19T00:33:36.871Z,96.60
2019-01-19T00:35:17.803Z,96.60
2019-01-19T00:36:56.348Z,96.80
2019-01-19T00:38:32.574Z,96.70
2019-01-19T00:40:00.735Z,96.60
2019-01-19T00:42:08.016Z,96.40
2019-01-19T00:43:38.096Z,96.40
2019-01-19T00:45:36.149Z,96.20
2019-01-19T00:47:18.117Z,96.00
2019-01-19T00:48:50.930Z,96.10
2019-01-19T00:50:10.601Z,96.20
2019-01-19T00:51:51.073Z,96.10
2019-01-19T00:53:21.592Z,96.10
2019-01-19T00:54:38.532Z,96.10
2019-01-19T00:56:01.962Z,96.00
2019-01-19T00:57:18.186Z,95.80
2019-01-19T00:58:44.996Z,95.90
2019-01-19T00:59:55.215Z,95.80
2019-01-19T01:01:35.354Z,95.80
2019-01-19T01:03:19.845Z,95.90
2019-01-19T01:04:35.507Z,95.80
2019-01-19T01:06:21.856Z,96.00
2019-01-19T01:07:53.625Z,96.20
2019-01-19T01:09:38.964Z,96.10
2019-01-19T01:10:55.259Z,96.10
2019-01-19T01:12:11.389Z,96.10
2019-01-19T01:13:45.127Z,96.20
2019-01-19T01:15:25.115Z,96.20
2019-01-19T01:17:00.740Z,96.00
2019-01-19T01:18:55.977Z,95.90
2019-01-19T01:20:31.121Z,95.90
2019-01-19T01:22:32.402Z,95.70
2019-01-19T01:23:58.922Z,95.70
2019-01-19T01:25:48.402Z,95.60
2019-01-19T01:27:09.145Z,95.50
2019-01-19T01:28:51.623Z,95.40
2019-01-19T01:30:20.153Z,95.40
2019-01-19T01:31:44.108Z,95.50
2019-01-19T01:33:39.717Z,95.40
2019-01-19T01:35:16.045Z,95.40
2019-01-19T01:36:58.538Z,95.30
2019-01-19T01:38:47.621Z,95.20
2019-01-19T01:40:35.239Z,95.20
2019-01-19T01:42:06.306Z,95.10
2019-01-19T01:43:41.723Z,95.10
2019-01-19T01:45:39.736Z,95.10
2019-01-19T01:47:22.176Z,94.90
2019-01-19T01:49:08.347Z,94.30
2019-01-19T01:50:46.865Z,94.40
2019-01-19T01:52:39.403Z,94.40
2019-01-19T01:54:05.341Z,94.30
2019-01-19T01:55:27.017Z,94.30
2019-01-19T01:56:32.049Z,94.40
2019-01-19T01:58:02.174Z,94.60
2019-01-19T01:59:28.084Z,94.90
2019-01-19T02:00:53.598Z,95.10
2019-01-19T02:02:26.233Z,95.30
2019-01-19T02:03:56.846Z,95.80
2019-01-19T02:05:26.865Z,95.90
2019-01-19T02:07:08.076Z,95.80
2019-01-19T02:08:35.714Z,95.60
2019-01-19T02:10:18.258Z,95.50
2019-01-19T02:12:19.563Z,95.70
2019-01-19T02:14:23.470Z,95.70
2019-01-19T02:16:03.174Z,95.80
2019-01-19T02:17:42.556Z,96.10
2019-01-19T02:19:32.010Z,96.00
2019-01-19T02:21:08.959Z,96.00
2019-01-19T02:22:32.842Z,95.90
2019-01-19T02:24:01.388Z,95.70
2019-01-19T02:25:44.452Z,95.70
2019-01-19T02:27:25.854Z,95.60
2019-01-19T02:29:14.107Z,95.50
2019-01-19T02:30:31.666Z,95.50
2019-01-19T02:32:02.054Z,95.40
2019-01-19T02:33:49.622Z,95.40
2019-01-19T02:35:32.324Z,95.50
2019-01-19T02:37:21.488Z,95.60
2019-01-19T02:39:03.081Z,95.70
2019-01-19T02:40:33.161Z,95.60
2019-01-19T02:42:14.037Z,95.50
2019-01-19T02:43:56.379Z,95.50
2019-01-19T02:45:27.508Z,95.30
2019-01-19T02:47:07.148Z,95.00
2019-01-19T02:48:44.889Z,95.20
2019-01-19T02:50:27.066Z,95.60
2019-01-19T02:52:11.156Z,95.70
2019-01-19T02:54:05.468Z,95.50
2019-01-19T02:55:54.724Z,95.50
2019-01-19T02:57:29.677Z,95.70
2019-01-19T02:58:45.753Z,95.70
2019-01-19T03:00:45.578Z,95.70
2019-01-19T03:02:31.364Z,95.70
2019-01-19T03:03:59.756Z,95.80
2019-01-19T03:05:40.392Z,95.90
2019-01-19T03:07:41.007Z,95.90
2019-01-19T03:09:18.089Z,96.10
2019-01-19T03:10:46.680Z,96.10
2019-01-19T03:12:46.974Z,96.10
2019-01-19T03:14:26.397Z,96.00
2019-01-19T03:16:15.922Z,96.30
2019-01-19T03:18:17.461Z,96.40
2019-01-19T03:19:59.815Z,96.60
2019-01-19T03:21:29.541Z,96.60
2019-01-19T03:23:11.942Z,96.50
2019-01-19T03:24:40.009Z,96.40
2019-01-19T03:26:29.396Z,96.30
2019-01-19T03:27:42.072Z,96.20
2019-01-19T03:29:19.896Z,96.10
2019-01-19T03:30:58.669Z,96.10
2019-01-19T03:32:46.424Z,95.90
2019-01-19T03:34:19.411Z,96.10
2019-01-19T03:36:14.342Z,96.00
2019-01-19T03:38:00.674Z,95.90
2019-01-19T03:40:04.865Z,95.70
2019-01-19T03:41:53.181Z,95.90
2019-01-19T03:43:31.025Z,96.20
2019-01-19T03:44:51.204Z,96.30
2019-01-19T03:46:35.753Z,96.30
2019-01-19T03:48:27.681Z,96.30
2019-01-19T03:50:12.577Z,96.40
2019-01-19T03:51:32.528Z,96.10
2019-01-19T03:53:08.843Z,95.60
2019-01-19T03:54:54.698Z,95.30
2019-01-19T03:56:24.528Z,94.90
2019-01-19T03:58:10.541Z,94.70
2019-01-19T03:59:49.400Z,94.60
2019-01-19T04:01:35.316Z,94.40
2019-01-19T04:03:42.553Z,94.50
2019-01-19T04:05:18.051Z,94.60
2019-01-19T04:06:51.341Z,94.80
2019-01-19T04:08:37.471Z,95.00
2019-01-19T04:10:24.769Z,95.00
2019-01-19T04:12:13.053Z,95.00
2019-01-19T04:13:58.238Z,95.00
2019-01-19T04:15:13.236Z,95.00
2019-01-19T04:16:49.039Z,95.20
2019-01-19T04:18:12.846Z,95.20
2019-01-19T04:19:37.853Z,95.30
2019-01-19T04:21:20.646Z,95.40
2019-01-19T04:22:36.415Z,95.10
2019-01-19T04:23:44.901Z,95.30
2019-01-19T04:25:26.873Z,95.40
2019-01-19T04:26:38.360Z,95.40
2019-01-19T04:27:43.450Z,95.90
2019-01-19T04:28:48.876Z,96.10
2019-01-19T04:29:54.037Z,96.10
2019-01-19T04:30:59.225Z,96.10
2019-01-19T04:32:04.303Z,96.00
2019-01-19T04:33:10.285Z,95.90
2019-01-19T04:34:15.506Z,95.70
2019-01-19T04:35:20.531Z,95.60
2019-01-19T04:36:25.825Z,95.60
2019-01-19T04:37:31.000Z,95.50
2019-01-19T04:38:37.693Z,95.30
2019-01-19T04:39:42.711Z,95.30
2019-01-19T04:40:47.797Z,95.50
2019-01-19T04:41:52.845Z,95.50
2019-01-19T04:42:57.973Z,95.40
2019-01-19T04:44:03.087Z,95.40
2019-01-19T04:45:08.221Z,95.50
2019-01-19T04:46:13.312Z,95.40
2019-01-19T04:47:18.446Z,95.40
2019-01-19T04:48:23.673Z,95.30
2019-01-19T04:49:28.693Z,95.30
2019-01-19T04:50:33.729Z,95.20
2019-01-19T04:51:38.880Z,95.10
2019-01-19T04:52:43.898Z,95.00
2019-01-19T04:53:48.987Z,94.80
2019-01-19T04:54:54.034Z,94.70
2019-01-19T04:55:59.085Z,94.80
2019-01-19T04:57:04.131Z,94.70
2019-01-19T04:58:09.174Z,94.80
2019-01-19T04:59:14.191Z,94.90
2019-01-19T05:00:19.792Z,95.00
2019-01-19T05:01:24.796Z,95.00
2019-01-19T05:02:29.834Z,95.10
2019-01-19T05:03:34.862Z,95.30
2019-01-19T05:04:39.983Z,95.20
2019-01-19T05:05:45.129Z,95.30
2019-01-19T05:06:50.236Z,95.40
2019-01-19T05:07:55.267Z,95.40
2019-01-19T05:09:00.401Z,95.40
2019-01-19T05:10:06.545Z,95.50
2019-01-19T05:11:11.632Z,95.50
2019-01-19T05:12:16.753Z,95.50
2019-01-19T05:13:22.197Z,95.50
2019-01-19T05:14:27.279Z,95.40
2019-01-19T05:15:32.297Z,95.40
2019-01-19T05:16:37.324Z,95.30
2019-01-19T05:17:42.731Z,95.30
2019-01-19T05:18:47.786Z,95.30
2019-01-19T05:19:52.821Z,95.30
2019-01-19T05:20:57.943Z,95.20
2019-01-19T05:22:03.072Z,95.20
2019-01-19T05:23:08.196Z,95.10
2019-01-19T05:24:13.296Z,95.20
2019-01-19T05:25:18.418Z,95.30
2019-01-19T05:26:23.557Z,95.40
2019-01-19T05:27:28.591Z,95.40
2019-01-19T05:28:33.648Z,95.40
2019-01-19T05:29:38.692Z,95.40
2019-01-19T05:30:43.783Z,95.40
2019-01-19T05:31:48.789Z,95.50
2019-01-19T05:32:53.902Z,95.50
2019-01-19T05:33:58.952Z,95.50
2019-01-19T05:35:04.675Z,95.60
2019-01-19T05:36:09.679Z,95.60
2019-01-19T05:37:14.692Z,95.60
2019-01-19T05:38:19.745Z,95.50
2019-01-19T05:39:24.863Z,95.50
2019-01-19T05:40:29.889Z,95.50
2019-01-19T05:41:34.991Z,95.50
2019-01-19T05:42:40.210Z,95.50
2019-01-19T05:43:45.236Z,95.50
2019-01-19T05:44:50.350Z,95.40
2019-01-19T05:45:55.441Z,95.40
2019-01-19T05:47:00.471Z,95.20
2019-01-19T05:48:05.634Z,95.10
2019-01-19T05:49:10.734Z,95.00
2019-01-19T05:50:18.260Z,95.00
2019-01-19T05:51:23.363Z,94.90
2019-01-19T05:52:28.381Z,94.90
2019-01-19T05:53:33.492Z,94.80
2019-01-19T05:54:38.508Z,94.80
2019-01-19T05:55:43.531Z,94.80
2019-01-19T05:56:48.569Z,94.80
2019-01-19T05:57:53.598Z,94.80
2019-01-19T05:58:58.630Z,94.60
2019-01-19T06:00:05.056Z,94.50
2019-01-19T06:01:10.184Z,94.30
2019-01-19T06:02:15.264Z,94.10
2019-01-19T06:03:20.280Z,93.90
2019-01-19T06:04:25.309Z,93.80
2019-01-19T06:05:30.331Z,93.80
2019-01-19T06:06:35.352Z,93.90
2019-01-19T06:07:41.592Z,94.20
2019-01-19T06:08:48.106Z,94.30
2019-01-19T06:09:53.209Z,94.50
2019-01-19T06:10:58.342Z,94.60
2019-01-19T06:12:03.445Z,94.70
2019-01-19T06:13:08.549Z,94.70
2019-01-19T06:14:13.670Z,94.70
2019-01-19T06:15:18.714Z,94.80
2019-01-19T06:16:23.834Z,94.90
2019-01-19T06:17:28.952Z,94.80
2019-01-19T06:18:35.086Z,94.70
2019-01-19T06:19:40.356Z,94.70
2019-01-19T06:20:45.477Z,94.80
2019-01-19T06:21:55.194Z,94.80
2019-01-19T06:23:00.321Z,94.80
2019-01-19T06:24:05.533Z,94.90
2019-01-19T06:25:11.575Z,94.90
2019-01-19T06:26:16.702Z,95.00
2019-01-19T06:27:21.805Z,95.00
2019-01-19T06:28:26.887Z,94.90
2019-01-19T06:29:32.003Z,94.80
2019-01-19T06:30:37.269Z,95.00
2019-01-19T06:31:42.320Z,94.90
2019-01-19T06:32:47.550Z,94.70
2019-01-19T06:33:52.672Z,94.40
2019-01-19T06:34:57.793Z,94.50
2019-01-19T06:36:02.914Z,94.50
2019-01-19T06:37:08.077Z,94.40
2019-01-19T06:38:13.097Z,94.40
2019-01-19T06:39:18.137Z,94.40
2019-01-19T06:40:23.175Z,94.40
2019-01-19T06:41:28.287Z,94.50
2019-01-19T06:42:33.436Z,94.50
2019-01-19T06:43:38.555Z,94.60
2019-01-19T06:44:43.660Z,94.60
2019-01-19T06:45:48.749Z,94.70
2019-01-19T06:46:53.785Z,94.70
2019-01-19T06:47:58.811Z,94.80
2019-01-19T06:49:03.899Z,94.90
2019-01-19T06:50:11.209Z,94.90
2019-01-19T06:51:16.262Z,94.80
2019-01-19T06:52:21.360Z,94.80
2019-01-19T06:53:27.612Z,94.90
2019-01-19T06:54:32.914Z,94.90
2019-01-19T06:55:38.245Z,94.80
2019-01-19T06:56:43.357Z,94.80
2019-01-19T06:57:48.467Z,94.80
2019-01-19T06:58:53.593Z,94.70
2019-01-19T06:59:58.709Z,94.60
2019-01-19T07:01:03.873Z,94.60
2019-01-19T07:02:08.918Z,94.60
2019-01-19T07:03:14.012Z,94.40
2019-01-19T07:04:19.108Z,94.30
2019-01-19T07:05:24.138Z,94.10
2019-01-19T07:06:29.259Z,94.10
2019-01-19T07:07:34.377Z,94.10
2019-01-19T07:08:39.478Z,94.10
2019-01-19T07:09:44.583Z,94.20
2019-01-19T07:10:49.720Z,94.30
2019-01-19T07:11:54.951Z,94.30
2019-01-19T07:13:00.073Z,94.40
2019-01-19T07:14:06.097Z,94.50
2019-01-19T07:15:11.969Z,94.60
2019-01-19T07:16:17.003Z,94.70
2019-01-19T07:17:22.131Z,94.80
2019-01-19T07:18:27.250Z,94.80
2019-01-19T07:19:32.268Z,94.90
2019-01-19T07:20:37.372Z,94.90
2019-01-19T07:21:42.488Z,95.00
2019-01-19T07:22:47.615Z,95.00
2019-01-19T07:23:52.750Z,95.00
2019-01-19T07:24:57.862Z,95.10
2019-01-19T07:26:02.896Z,95.00
2019-01-19T07:27:07.940Z,94.90
2019-01-19T07:28:13.038Z,94.90
2019-01-19T07:29:18.057Z,94.80
2019-01-19T07:30:23.094Z,94.80
2019-01-19T07:31:28.292Z,94.80
2019-01-19T07:32:33.540Z,94.70
2019-01-19T07:33:38.616Z,94.50
2019-01-19T07:34:43.743Z,94.50
2019-01-19T07:35:48.801Z,94.50
2019-01-19T07:36:53.880Z,94.60
2019-01-19T07:37:59.000Z,94.40
2019-01-19T07:39:06.369Z,94.30
2019-01-19T07:40:13.673Z,94.10
2019-01-19T07:41:18.777Z,94.00
2019-01-19T07:42:23.876Z,93.90
2019-01-19T07:43:29.299Z,93.40
2019-01-19T07:44:34.361Z,93.20
2019-01-19T07:45:39.456Z,93.40
2019-01-19T07:46:44.552Z,93.20
2019-01-19T07:47:49.737Z,93.10
2019-01-19T07:48:54.808Z,94.00
2019-01-19T07:49:59.912Z,94.50
2019-01-19T07:51:05.042Z,95.30
2019-01-19T07:52:10.180Z,94.00
2019-01-19T07:53:15.304Z,96.20
2019-01-19T07:54:20.352Z,99.90
2019-01-19T07:55:25.491Z,94.50
2019-01-19T07:56:30.645Z,93.20
2019-01-19T07:57:35.763Z,93.40
2019-01-19T07:58:40.893Z,91.40
2019-01-19T07:59:46.031Z,87.70
2019-01-19T08:00:51.072Z,85.80
2019-01-19T08:01:56.212Z,83.50
2019-01-19T08:03:01.333Z,81.10
2019-01-19T08:04:06.493Z,81.30
2019-01-19T08:05:11.749Z,79.40
2019-01-19T08:06:16.880Z,78.40
2019-01-19T08:07:22.076Z,77.10
2019-01-19T08:08:27.108Z,75.50
2019-01-19T08:09:32.249Z,76.20
2019-01-19T08:10:37.348Z,76.90
2019-01-19T08:11:42.622Z,78.00
2019-01-19T08:12:47.774Z,77.70
2019-01-19T08:13:52.913Z,76.00
2019-01-19T08:14:58.135Z,72.90
2019-01-19T08:16:03.233Z,72.30
2019-01-19T08:17:09.459Z,71.40
2019-01-19T08:18:14.718Z,71.30
2019-01-19T08:19:19.797Z,71.70
2019-01-19T08:20:24.897Z,71.00
2019-01-19T08:21:30.063Z,70.70
2019-01-19T08:22:35.101Z,69.60
2019-01-19T08:24:07.907Z,70.80
2019-01-19T08:25:14.571Z,69.00
2019-01-19T08:26:19.889Z,67.60
2019-01-19T08:27:25.017Z,67.00
2019-01-19T08:28:30.147Z,66.70
2019-01-19T08:29:35.322Z,67.20
2019-01-19T08:30:40.361Z,65.90
2019-01-19T08:31:45.521Z,65.70
2019-01-19T08:32:50.809Z,63.40
2019-01-19T08:33:56.038Z,60.90
2019-01-19T08:35:01.334Z,57.90
2019-01-19T08:36:06.624Z,57.90
2019-01-19T08:37:11.746Z,53.30
2019-01-19T08:38:16.865Z,49.20
2019-01-19T08:39:22.014Z,47.70
2019-01-19T08:40:29.725Z,47.30
2019-01-19T08:41:34.856Z,44.70
2019-01-19T08:42:40.165Z,44.10
2019-01-19T08:43:51.849Z,42.70
2019-01-19T08:44:57.103Z,40.30
2019-01-19T08:46:03.309Z,39.20
2019-01-19T08:47:08.636Z,38.80
2019-01-19T08:48:13.844Z,37.60
2019-01-19T08:49:18.936Z,37.60
2019-01-19T08:50:24.085Z,37.00
2019-01-19T08:51:29.271Z,36.20
2019-01-19T08:52:34.353Z,34.90
2019-01-19T08:53:39.451Z,34.10
2019-01-19T08:54:44.559Z,34.00
2019-01-19T08:55:49.689Z,33.90
2019-01-19T08:56:54.899Z,33.00
2019-01-19T08:58:00.052Z,32.90
2019-01-19T08:59:05.324Z,31.80
2019-01-19T09:00:13.966Z,31.20
2019-01-19T09:01:19.143Z,30.80
2019-01-19T09:02:24.247Z,30.70
2019-01-19T09:03:29.356Z,31.40
2019-01-19T09:04:34.448Z,32.20
2019-01-19T09:05:39.554Z,32.80
2019-01-19T09:06:44.707Z,32.90
2019-01-19T09:07:49.754Z,33.20
2019-01-19T09:08:54.905Z,33.10
2019-01-19T09:10:00.238Z,32.30
2019-01-19T09:11:05.425Z,32.00
2019-01-19T09:12:10.461Z,31.80
2019-01-19T09:13:15.547Z,31.30
2019-01-19T09:14:20.670Z,30.70
2019-01-19T09:15:25.802Z,30.50
2019-01-19T09:16:30.857Z,30.90
2019-01-19T09:17:35.945Z,31.10
2019-01-19T09:18:41.104Z,30.90
2019-01-19T09:19:46.205Z,31.20
2019-01-19T09:20:51.412Z,31.10
2019-01-19T09:21:56.485Z,31.00
2019-01-19T09:23:06.474Z,30.70
2019-01-19T09:24:28.885Z,30.50
2019-01-19T09:25:34.016Z,30.70
2019-01-19T09:26:39.186Z,30.70
2019-01-19T09:27:44.532Z,30.30
2019-01-19T09:28:49.593Z,30.20
2019-01-19T09:29:54.697Z,30.20
2019-01-19T09:30:59.819Z,30.00
2019-01-19T09:32:05.170Z,29.70
2019-01-19T09:33:10.346Z,29.70
2019-01-19T09:34:15.389Z,29.90
2019-01-19T09:35:20.517Z,29.90
2019-01-19T09:36:25.631Z,30.00
2019-01-19T09:37:31.754Z,30.00
2019-01-19T09:38:36.788Z,30.70
2019-01-19T09:39:41.834Z,31.00
2019-01-19T09:40:47.019Z,30.50
2019-01-19T09:41:52.198Z,31.50
2019-01-19T09:42:57.328Z,31.60
2019-01-19T09:44:03.489Z,31.50
2019-01-19T09:45:09.057Z,32.00
2019-01-19T09:46:14.179Z,32.60
2019-01-19T09:47:19.320Z,32.10
2019-01-19T09:48:24.473Z,31.90
2019-01-19T09:49:29.581Z,31.70
2019-01-19T09:50:35.157Z,31.50
2019-01-19T09:51:40.274Z,30.90
2019-01-19T09:52:45.498Z,31.40
2019-01-19T09:53:50.617Z,31.80
2019-01-19T09:54:55.749Z,32.20
2019-01-19T09:56:00.836Z,32.70
2019-01-19T09:57:06.233Z,32.30
2019-01-19T09:58:11.413Z,32.00
2019-01-19T09:59:16.491Z,31.70
2019-01-19T10:00:21.724Z,32.10
2019-01-19T10:01:26.833Z,32.30
2019-01-19T10:02:32.039Z,32.90
2019-01-19T10:03:37.178Z,33.30
2019-01-19T10:04:42.212Z,33.70
2019-01-19T10:05:47.338Z,33.60
2019-01-19T10:06:52.464Z,34.00
2019-01-19T10:07:57.588Z,34.00
2019-01-19T10:09:05.684Z,34.70
2019-01-19T10:10:11.843Z,35.40
2019-01-19T10:11:16.967Z,35.60
2019-01-19T10:12:22.078Z,35.70
2019-01-19T10:13:27.209Z,35.50
2019-01-19T10:14:32.324Z,34.90
2019-01-19T10:15:37.501Z,35.10
2019-01-19T10:16:42.542Z,36.10
2019-01-19T10:17:47.563Z,36.10
2019-01-19T10:18:52.925Z,36.00
2019-01-19T10:19:58.097Z,36.00
2019-01-19T10:21:03.244Z,36.40
2019-01-19T10:22:08.436Z,38.20
2019-01-19T10:23:13.505Z,39.10
2019-01-19T10:24:18.634Z,39.80
2019-01-19T10:25:23.690Z,40.90
2019-01-19T10:26:28.835Z,42.00
2019-01-19T10:27:37.488Z,43.30
2019-01-19T10:28:41.524Z,44.30
2019-01-19T10:29:46.601Z,45.30
2019-01-19T10:30:51.704Z,46.30
2019-01-19T10:31:56.829Z,47.40
2019-01-19T10:33:03.153Z,47.90
2019-01-19T10:34:08.316Z,48.40
2019-01-19T10:35:13.431Z,48.30
2019-01-19T10:36:18.481Z,49.10
2019-01-19T10:37:23.613Z,50.60
2019-01-19T10:38:28.745Z,51.00
2019-01-19T10:39:33.866Z,51.60
2019-01-19T10:40:38.984Z,52.50
2019-01-19T10:41:44.051Z,53.80
2019-01-19T10:42:49.088Z,55.50
2019-01-19T10:43:54.103Z,57.30
2019-01-19T10:44:59.295Z,58.70
2019-01-19T10:46:04.509Z,59.20
2019-01-19T10:47:09.684Z,59.20
2019-01-19T10:48:14.810Z,59.70
2019-01-19T10:49:19.924Z,60.60
2019-01-19T10:50:24.976Z,61.30
2019-01-19T10:51:30.124Z,61.30
2019-01-19T10:52:35.235Z,61.40
2019-01-19T10:53:40.252Z,62.30
2019-01-19T10:54:45.272Z,62.40
2019-01-19T10:55:50.331Z,62.70
2019-01-19T10:56:55.411Z,63.10
2019-01-19T10:58:00.501Z,63.20
2019-01-19T10:59:05.616Z,63.50
2019-01-19T11:00:16.966Z,64.30
2019-01-19T11:01:22.178Z,64.30
2019-01-19T11:02:27.281Z,64.40
2019-01-19T11:03:32.422Z,64.90
2019-01-19T11:04:37.434Z,65.20
2019-01-19T11:05:42.514Z,65.70
2019-01-19T11:06:47.801Z,65.90
2019-01-19T11:07:53.058Z,66.10
2019-01-19T11:08:59.119Z,66.40
2019-01-19T11:10:04.752Z,66.20
2019-01-19T11:11:09.798Z,66.20
2019-01-19T11:12:14.905Z,66.00
2019-01-19T11:13:20.081Z,65.80
2019-01-19T11:14:25.239Z,65.80
2019-01-19T11:15:30.325Z,65.60
2019-01-19T11:16:35.455Z,65.40
2019-01-19T11:17:40.537Z,65.40
2019-01-19T11:18:45.655Z,65.30
2019-01-19T11:19:50.780Z,65.50
2019-01-19T11:20:55.845Z,65.60
2019-01-19T11:22:00.916Z,65.60
2019-01-19T11:23:06.082Z,65.50
2019-01-19T11:24:11.176Z,66.00
2019-01-19T11:25:16.298Z,66.50
2019-01-19T11:26:21.341Z,67.30
2019-01-19T11:27:26.491Z,67.50
2019-01-19T11:28:31.651Z,67.50
2019-01-19T11:29:36.715Z,67.40
2019-01-19T11:30:41.828Z,68.20
2019-01-19T11:31:46.876Z,67.90
2019-01-19T11:32:52.010Z,68.10
2019-01-19T11:33:57.048Z,68.00
2019-01-19T11:35:02.206Z,68.20
2019-01-19T11:36:07.316Z,68.50
2019-01-19T11:37:12.377Z,68.60
2019-01-19T11:38:20.221Z,68.60
2019-01-19T11:39:24.232Z,68.80
2019-01-19T11:40:32.356Z,69.10
2019-01-19T11:41:37.458Z,69.50
2019-01-19T11:42:44.033Z,69.80
2019-01-19T11:43:49.225Z,70.10
2019-01-19T11:44:54.264Z,70.00
2019-01-19T11:45:59.331Z,70.90
2019-01-19T11:47:04.377Z,71.00
2019-01-19T11:48:09.512Z,70.80
2019-01-19T11:49:14.544Z,70.90
2019-01-19T11:50:19.656Z,71.10
2019-01-19T11:51:24.664Z,71.00
2019-01-19T11:52:29.788Z,70.80
2019-01-19T11:53:34.851Z,71.00
2019-01-19T11:54:40.151Z,70.90
2019-01-19T11:55:46.030Z,71.90
2019-01-19T11:56:51.290Z,72.20
2019-01-19T11:57:59.284Z,71.90
2019-01-19T11:59:04.329Z,72.10
2019-01-19T12:00:15.738Z,72.10
2019-01-19T12:01:21.854Z,72.50
2019-01-19T12:02:26.965Z,73.20
2019-01-19T12:03:32.153Z,73.00
2019-01-19T12:04:37.182Z,72.50
2019-01-19T12:05:42.257Z,72.70
2019-01-19T12:06:47.382Z,73.80
2019-01-19T12:07:52.517Z,73.80
2019-01-19T12:08:57.649Z,73.70
2019-01-19T12:10:02.761Z,73.60
2019-01-19T12:11:07.889Z,72.90
2019-01-19T12:12:12.917Z,73.30
2019-01-19T12:13:18.035Z,73.40
2019-01-19T12:14:23.087Z,73.80
2019-01-19T12:15:28.967Z,74.50
2019-01-19T12:16:34.185Z,73.50
2019-01-19T12:17:39.229Z,73.50
2019-01-19T12:18:44.340Z,74.60
2019-01-19T12:19:49.366Z,74.20
2019-01-19T12:20:54.473Z,74.10
2019-01-19T12:21:59.522Z,74.10
2019-01-19T12:23:04.612Z,74.10
2019-01-19T12:24:09.723Z,74.60
2019-01-19T12:25:16.350Z,74.50
2019-01-19T12:26:21.493Z,74.80
2019-01-19T12:27:26.536Z,75.10
2019-01-19T12:28:31.636Z,74.60
2019-01-19T12:29:36.713Z,74.20
2019-01-19T12:30:41.732Z,74.50
2019-01-19T12:31:46.736Z,74.80
2019-01-19T12:32:51.752Z,75.10
2019-01-19T12:33:56.866Z,74.60
2019-01-19T12:35:01.992Z,74.00
2019-01-19T12:36:06.996Z,74.70
2019-01-19T12:37:12.103Z,74.80
2019-01-19T12:38:17.148Z,75.30
2019-01-19T12:39:22.231Z,76.10
2019-01-19T12:40:28.066Z,74.80
2019-01-19T12:41:33.091Z,74.70
2019-01-19T12:42:38.206Z,75.10
2019-01-19T12:43:43.992Z,75.80
2019-01-19T12:44:49.118Z,75.30
2019-01-19T12:46:14.668Z,76.10
2019-01-19T12:47:19.728Z,76.10
2019-01-19T12:48:24.868Z,76.30
2019-01-19T12:49:30.012Z,76.40
2019-01-19T12:50:35.123Z,76.40
2019-01-19T12:51:40.240Z,76.30
2019-01-19T12:52:45.299Z,76.20
2019-01-19T12:53:50.324Z,77.50
2019-01-19T12:54:55.359Z,76.80
2019-01-19T12:56:00.626Z,77.20
2019-01-19T12:57:05.672Z,76.80
2019-01-19T12:58:10.967Z,77.00
2019-01-19T12:59:16.089Z,76.70
2019-01-19T13:00:23.513Z,76.70
2019-01-19T13:01:28.632Z,77.20
2019-01-19T13:02:33.849Z,76.70
2019-01-19T13:03:38.947Z,76.00
2019-01-19T13:04:43.989Z,76.00
2019-01-19T13:06:22.585Z,76.30
2019-01-19T13:07:27.726Z,76.20
2019-01-19T13:08:34.470Z,75.40
2019-01-19T13:09:52.393Z,75.20
2019-01-19T13:11:07.086Z,75.30
2019-01-19T13:12:34.249Z,75.80
2019-01-19T13:13:46.617Z,76.30
2019-01-19T13:15:04.149Z,76.20
2019-01-19T13:17:02.493Z,76.20
2019-01-19T13:18:54.745Z,75.80
2019-01-19T13:20:23.139Z,77.20
2019-01-19T13:22:05.196Z,76.40
2019-01-19T13:23:45.316Z,76.20
2019-01-19T13:25:28.838Z,76.10
2019-01-19T13:27:04.417Z,76.60
2019-01-19T13:28:46.302Z,76.70
2019-01-19T13:30:29.208Z,76.80
2019-01-19T13:32:29.494Z,77.20
2019-01-19T13:34:10.348Z,77.20
2019-01-19T13:36:09.853Z,77.20
2019-01-19T13:37:57.613Z,77.40
2019-01-19T13:40:01.964Z,77.10
2019-01-19T13:42:09.763Z,77.10
2019-01-19T13:43:42.599Z,76.20
2019-01-19T13:45:27.292Z,76.20
2019-01-19T13:47:19.564Z,76.70
2019-01-19T13:49:09.487Z,76.40
2019-01-19T13:51:10.665Z,76.40
2019-01-19T13:52:47.047Z,76.40
2019-01-19T13:54:53.883Z,75.70
2019-01-19T13:56:40.006Z,75.20
2019-01-19T13:58:18.151Z,75.40
2019-01-19T13:59:58.904Z,75.30
2019-01-19T14:01:34.885Z,75.70
2019-01-19T14:03:24.929Z,75.20
2019-01-19T14:04:55.331Z,75.20
2019-01-19T14:06:59.813Z,75.20
2019-01-19T14:08:49.679Z,75.20
2019-01-19T14:10:34.849Z,75.80
2019-01-19T14:12:21.496Z,75.70
2019-01-19T14:14:28.832Z,75.60
2019-01-19T14:16:09.804Z,76.00
2019-01-19T14:17:51.971Z,76.10
2019-01-19T14:19:44.214Z,76.00
2019-01-19T14:21:26.088Z,76.80
2019-01-19T14:23:42.974Z,76.70
2019-01-19T14:25:32.085Z,76.30
2019-01-19T14:27:02.489Z,76.10
2019-01-19T14:29:04.111Z,76.80
2019-01-19T14:30:53.248Z,77.50
2019-01-19T14:32:42.196Z,76.10
2019-01-19T14:34:22.837Z,75.80
2019-01-19T14:35:50.753Z,75.80
2019-01-19T14:37:12.393Z,75.70
2019-01-19T14:39:04.529Z,75.40
2019-01-19T14:40:42.416Z,76.10
2019-01-19T14:42:00.362Z,76.40
2019-01-19T14:43:44.697Z,76.40
2019-01-19T14:45:29.826Z,76.50
2019-01-19T14:47:09.370Z,77.50
2019-01-19T14:49:07.822Z,77.20
2019-01-19T14:50:51.091Z,76.80
2019-01-19T14:52:17.277Z,76.30
2019-01-19T14:53:48.529Z,75.50
2019-01-19T14:55:25.774Z,74.60
2019-01-19T14:56:59.264Z,75.00
2019-01-19T14:58:15.048Z,75.60
2019-01-19T14:59:56.036Z,75.30
2019-01-19T15:01:22.754Z,75.70
2019-01-19T15:03:23.748Z,76.50
2019-01-19T15:04:56.263Z,75.80
2019-01-19T15:06:31.113Z,76.00
2019-01-19T15:08:24.480Z,76.30
2019-01-19T15:09:56.612Z,76.20
2019-01-19T15:11:44.798Z,76.30
2019-01-19T15:13:12.939Z,76.30
2019-01-19T15:14:36.060Z,76.70
2019-01-19T15:16:11.465Z,76.30
2019-01-19T15:17:48.752Z,75.60
2019-01-19T15:19:31.334Z,75.90
2019-01-19T15:21:18.070Z,75.80
2019-01-19T15:22:48.146Z,75.50
2019-01-19T15:24:08.894Z,75.80
2019-01-19T15:26:07.061Z,76.60
2019-01-19T15:28:08.442Z,76.10
2019-01-19T15:29:50.453Z,75.70
2019-01-19T15:31:18.742Z,75.70
2019-01-19T15:32:38.670Z,75.60
2019-01-19T15:34:00.849Z,76.00
2019-01-19T15:35:39.591Z,76.50
2019-01-19T15:37:34.959Z,75.80
2019-01-19T15:39:11.037Z,75.60
2019-01-19T15:40:55.292Z,75.20
2019-01-19T15:42:27.994Z,74.80
2019-01-19T15:44:13.385Z,75.30
2019-01-19T15:46:01.360Z,75.50
2019-01-19T15:47:43.283Z,75.80
2019-01-19T15:49:14.616Z,75.60
2019-01-19T15:51:11.784Z,75.50
2019-01-19T15:52:40.849Z,75.80
2019-01-19T15:53:54.241Z,75.90
2019-01-19T15:55:52.457Z,76.10
2019-01-19T15:57:31.270Z,76.10
2019-01-19T15:59:26.578Z,76.40
2019-01-19T16:01:03.786Z,76.50
2019-01-19T16:02:33.738Z,76.20
2019-01-19T16:04:35.188Z,76.10
2019-01-19T16:06:18.106Z,76.10
2019-01-19T16:08:09.374Z,75.80
2019-01-19T16:09:50.300Z,76.30
2019-01-19T16:11:11.262Z,76.30
2019-01-19T16:12:45.974Z,77.30
2019-01-19T16:14:28.018Z,77.00
2019-01-19T16:16:19.171Z,77.00
2019-01-19T16:18:07.927Z,77.20
2019-01-19T16:20:15.001Z,77.00
2019-01-19T16:21:48.940Z,77.70
2019-01-19T16:23:42.758Z,77.50
2019-01-19T16:25:19.274Z,77.50
2019-01-19T16:26:42.854Z,78.30
2019-01-19T16:28:28.602Z,78.10
2019-01-19T16:30:06.318Z,78.00
2019-01-19T16:32:08.136Z,78.10
2019-01-19T16:33:42.557Z,78.20
2019-01-19T16:35:35.229Z,78.30
2019-01-19T16:37:12.686Z,78.40
2019-01-19T16:38:59.390Z,78.90
2019-01-19T16:40:51.989Z,79.20
2019-01-19T16:42:50.744Z,79.60
2019-01-19T16:44:26.265Z,79.20
2019-01-19T16:46:03.324Z,79.30
2019-01-19T16:47:57.026Z,79.60
2019-01-19T16:49:23.423Z,79.70